UAE461 OMDB-HKJK
Flight info
| Callsign | UAE461 |
|---|---|
| Flight time | 4h 25m |
| Altitude | 34000 |
| Route | ANVIX7F ANVIX R401 GIDIS G783 ELUDA/N0481F360 G783 UKRAG/N0483F370 L710 KUKDI/N0483F380 B400 RIGAM B403 BOMIX UB403 MAV UP312 WAV WAJI1A |
| Aircraft | B77W/H-SDE1E2E3FGHIJ2J3J4J5M1RWXY/LB1D1 |
Departure
| Time | 2026-04-26 16:02 |
|---|---|
| Airport | Dubai International Airport (OMDB) |
Arrival
| Time | 2026-04-26 20:27 |
|---|---|
| Airport | Jomo Kenyatta International Airport (HKJK) |
| Time | Latitude | Longitude | Altitude | Speed | Heading |
|---|---|---|---|---|---|
| 2026-04-26 15:09 | 25.25052 | 55.35984 | 47 ft | 0 kts | 212° |
| 2026-04-26 15:39 | 25.25060 | 55.35990 | 48 ft | 3 kts | 212° |
| 2026-04-26 15:39 | 25.25068 | 55.35995 | 48 ft | 3 kts | 212° |
| 2026-04-26 15:39 | 25.25085 | 55.36007 | 48 ft | 4 kts | 212° |
| 2026-04-26 15:39 | 25.25096 | 55.36014 | 48 ft | 1 kts | 212° |
| 2026-04-26 15:40 | 25.25106 | 55.36021 | 48 ft | 3 kts | 206° |
| 2026-04-26 15:40 | 25.25125 | 55.36033 | 48 ft | 1 kts | 210° |
| 2026-04-26 15:40 | 25.25145 | 55.36045 | 48 ft | 5 kts | 210° |
| 2026-04-26 15:40 | 25.25170 | 55.36061 | 48 ft | 2 kts | 209° |
| 2026-04-26 15:41 | 25.25173 | 55.36063 | 48 ft | 0 kts | 209° |
| 2026-04-26 15:44 | 25.25170 | 55.36061 | 48 ft | 2 kts | 208° |
| 2026-04-26 15:44 | 25.25152 | 55.36053 | 48 ft | 4 kts | 192° |
| 2026-04-26 15:45 | 25.25074 | 55.36147 | 48 ft | 14 kts | 120° |
| 2026-04-26 15:45 | 25.25031 | 55.36223 | 48 ft | 10 kts | 121° |
| 2026-04-26 15:46 | 25.24955 | 55.36361 | 48 ft | 4 kts | 121° |
| 2026-04-26 15:46 | 25.24949 | 55.36372 | 48 ft | 0 kts | 121° |
| 2026-04-26 15:46 | 25.24948 | 55.36372 | 48 ft | 0 kts | 121° |
| 2026-04-26 15:47 | 25.24939 | 55.36389 | 48 ft | 2 kts | 121° |
| 2026-04-26 15:47 | 25.24932 | 55.36415 | 48 ft | 3 kts | 87° |
| 2026-04-26 15:48 | 25.24945 | 55.36438 | 48 ft | 6 kts | 42° |
| 2026-04-26 15:48 | 25.25003 | 55.36457 | 48 ft | 10 kts | 350° |
| 2026-04-26 15:48 | 25.25020 | 55.36444 | 48 ft | 3 kts | 308° |
| 2026-04-26 15:48 | 25.25045 | 55.36392 | 48 ft | 4 kts | 296° |
| 2026-04-26 15:49 | 25.25051 | 55.36379 | 48 ft | 0 kts | 299° |
| 2026-04-26 15:49 | 25.25052 | 55.36378 | 48 ft | 0 kts | 299° |
| 2026-04-26 15:49 | 25.25074 | 55.36335 | 48 ft | 15 kts | 301° |
| 2026-04-26 15:49 | 25.25131 | 55.36232 | 48 ft | 11 kts | 301° |
| 2026-04-26 15:50 | 25.25172 | 55.36158 | 48 ft | 12 kts | 301° |
| 2026-04-26 15:50 | 25.25217 | 55.36077 | 48 ft | 8 kts | 301° |
| 2026-04-26 15:50 | 25.25235 | 55.36045 | 48 ft | 2 kts | 301° |
| 2026-04-26 15:50 | 25.25252 | 55.36015 | 48 ft | 10 kts | 301° |
| 2026-04-26 15:51 | 25.25320 | 55.35892 | 48 ft | 24 kts | 301° |
| 2026-04-26 15:51 | 25.25407 | 55.35735 | 48 ft | 25 kts | 301° |
| 2026-04-26 15:51 | 25.25501 | 55.35561 | 48 ft | 22 kts | 301° |
| 2026-04-26 15:51 | 25.25586 | 55.35408 | 48 ft | 25 kts | 302° |
| 2026-04-26 15:52 | 25.25661 | 55.35276 | 48 ft | 9 kts | 301° |
| 2026-04-26 15:52 | 25.25665 | 55.35269 | 48 ft | 0 kts | 301° |
| 2026-04-26 15:52 | 25.25665 | 55.35268 | 48 ft | 0 kts | 301° |
| 2026-04-26 15:53 | 25.25666 | 55.35266 | 48 ft | 3 kts | 301° |
| 2026-04-26 15:54 | 25.25703 | 55.35208 | 48 ft | 11 kts | 324° |
| 2026-04-26 15:54 | 25.25780 | 55.35224 | 48 ft | 17 kts | 33° |
| 2026-04-26 15:54 | 25.25923 | 55.35320 | 48 ft | 29 kts | 31° |
| 2026-04-26 15:54 | 25.26030 | 55.35400 | 48 ft | 13 kts | 59° |
| 2026-04-26 15:55 | 25.25996 | 55.35517 | 48 ft | 23 kts | 122° |
| 2026-04-26 15:55 | 25.25899 | 55.35690 | 48 ft | 27 kts | 122° |
| 2026-04-26 15:55 | 25.25816 | 55.35838 | 48 ft | 18 kts | 121° |
| 2026-04-26 15:55 | 25.25737 | 55.35982 | 48 ft | 21 kts | 121° |
| 2026-04-26 15:56 | 25.25653 | 55.36135 | 48 ft | 24 kts | 121° |
| 2026-04-26 15:56 | 25.25568 | 55.36290 | 48 ft | 26 kts | 121° |
| 2026-04-26 15:56 | 25.25480 | 55.36446 | 48 ft | 23 kts | 121° |
| 2026-04-26 15:56 | 25.25389 | 55.36612 | 48 ft | 24 kts | 121° |
| 2026-04-26 15:57 | 25.25301 | 55.36771 | 48 ft | 24 kts | 121° |
| 2026-04-26 15:57 | 25.25215 | 55.36924 | 48 ft | 24 kts | 121° |
| 2026-04-26 15:57 | 25.25133 | 55.37073 | 48 ft | 17 kts | 121° |
| 2026-04-26 15:57 | 25.25090 | 55.37151 | 48 ft | 20 kts | 121° |
| 2026-04-26 15:58 | 25.25010 | 55.37298 | 48 ft | 11 kts | 121° |
| 2026-04-26 15:58 | 25.24969 | 55.37372 | 48 ft | 16 kts | 121° |
| 2026-04-26 15:58 | 25.24918 | 55.37466 | 48 ft | 18 kts | 121° |
| 2026-04-26 15:58 | 25.24849 | 55.37589 | 48 ft | 21 kts | 121° |
| 2026-04-26 15:59 | 25.24768 | 55.37735 | 48 ft | 21 kts | 122° |
| 2026-04-26 15:59 | 25.24693 | 55.37870 | 48 ft | 19 kts | 121° |
| 2026-04-26 15:59 | 25.24664 | 55.37923 | 48 ft | 1 kts | 116° |
| 2026-04-26 15:59 | 25.24662 | 55.37931 | 48 ft | 1 kts | 101° |
| 2026-04-26 16:00 | 25.24663 | 55.37939 | 48 ft | 1 kts | 85° |
| 2026-04-26 16:00 | 25.24665 | 55.37947 | 48 ft | 1 kts | 69° |
| 2026-04-26 16:00 | 25.24669 | 55.37954 | 48 ft | 1 kts | 53° |
| 2026-04-26 16:00 | 25.24688 | 55.37971 | 48 ft | 12 kts | 37° |
| 2026-04-26 16:01 | 25.24789 | 55.38021 | 48 ft | 14 kts | 355° |
| 2026-04-26 16:01 | 25.24869 | 55.37922 | 48 ft | 26 kts | 301° |
| 2026-04-26 16:01 | 25.25007 | 55.37671 | 48 ft | 50 kts | 301° |
| 2026-04-26 16:01 | 25.25223 | 55.37276 | 48 ft | 70 kts | 301° |
| 2026-04-26 16:02 | 25.25558 | 55.36673 | 48 ft | 121 kts | 301° |
| 2026-04-26 16:02 | 25.26094 | 55.35704 | 53 ft | 172 kts | 301° |
| 2026-04-26 16:02 | 25.26729 | 55.34553 | 608 ft | 178 kts | 301° |
| 2026-04-26 16:02 | 25.27181 | 55.33741 | 1288 ft | 184 kts | 301° |
| 2026-04-26 16:03 | 25.28068 | 55.32148 | 2752 ft | 187 kts | 301° |
| 2026-04-26 16:03 | 25.28756 | 55.30911 | 3538 ft | 191 kts | 302° |
| 2026-04-26 16:03 | 25.29420 | 55.29628 | 3952 ft | 196 kts | 296° |
| 2026-04-26 16:03 | 25.29600 | 55.28123 | 3836 ft | 207 kts | 268° |
| 2026-04-26 16:04 | 25.29009 | 55.26621 | 3674 ft | 216 kts | 243° |
| 2026-04-26 16:04 | 25.28118 | 55.25299 | 4283 ft | 217 kts | 238° |
| 2026-04-26 16:04 | 25.27308 | 55.23865 | 5135 ft | 223 kts | 242° |
| 2026-04-26 16:04 | 25.26549 | 55.22370 | 6096 ft | 222 kts | 244° |
| 2026-04-26 16:05 | 25.25872 | 55.20882 | 6757 ft | 213 kts | 246° |
| 2026-04-26 16:05 | 25.25208 | 55.19308 | 6997 ft | 235 kts | 247° |
| 2026-04-26 16:05 | 25.24371 | 55.17743 | 7145 ft | 244 kts | 232° |
| 2026-04-26 16:05 | 25.22914 | 55.16731 | 7912 ft | 253 kts | 203° |
| 2026-04-26 16:06 | 25.21145 | 55.16496 | 8788 ft | 264 kts | 179° |
| 2026-04-26 16:06 | 25.19392 | 55.17158 | 9661 ft | 272 kts | 153° |
| 2026-04-26 16:06 | 25.18023 | 55.18602 | 10533 ft | 280 kts | 131° |
| 2026-04-26 16:06 | 25.16900 | 55.20444 | 11193 ft | 295 kts | 124° |
| 2026-04-26 16:07 | 25.15863 | 55.22444 | 11891 ft | 305 kts | 121° |
| 2026-04-26 16:07 | 25.14864 | 55.24557 | 12590 ft | 318 kts | 120° |
| 2026-04-26 16:07 | 25.13844 | 55.26792 | 13109 ft | 335 kts | 119° |
| 2026-04-26 16:07 | 25.12763 | 55.29136 | 13627 ft | 351 kts | 120° |
| 2026-04-26 16:08 | 25.11590 | 55.31559 | 14244 ft | 364 kts | 120° |
| 2026-04-26 16:08 | 25.10781 | 55.33193 | 14605 ft | 369 kts | 121° |
| 2026-04-26 16:08 | 25.09243 | 55.36623 | 14857 ft | 375 kts | 116° |
| 2026-04-26 16:08 | 25.08192 | 55.39283 | 14847 ft | 380 kts | 115° |
| 2026-04-26 16:09 | 25.07159 | 55.41961 | 14854 ft | 380 kts | 114° |
| 2026-04-26 16:09 | 25.06135 | 55.44644 | 14854 ft | 378 kts | 115° |
| 2026-04-26 16:09 | 25.05108 | 55.47310 | 14853 ft | 377 kts | 115° |
| 2026-04-26 16:09 | 25.04081 | 55.49971 | 14857 ft | 377 kts | 115° |
| 2026-04-26 16:10 | 25.03062 | 55.52610 | 15341 ft | 380 kts | 115° |
| 2026-04-26 16:10 | 25.01971 | 55.55307 | 16256 ft | 383 kts | 118° |
| 2026-04-26 16:10 | 25.00701 | 55.57910 | 17038 ft | 386 kts | 122° |
| 2026-04-26 16:10 | 24.99333 | 55.60427 | 17849 ft | 389 kts | 124° |
| 2026-04-26 16:11 | 24.97883 | 55.63015 | 18578 ft | 396 kts | 124° |
| 2026-04-26 16:11 | 24.96454 | 55.65633 | 19265 ft | 402 kts | 123° |
| 2026-04-26 16:11 | 24.95012 | 55.68299 | 19895 ft | 409 kts | 123° |
| 2026-04-26 16:11 | 24.93536 | 55.70947 | 20607 ft | 412 kts | 126° |
| 2026-04-26 16:12 | 24.91861 | 55.73587 | 21219 ft | 419 kts | 129° |
| 2026-04-26 16:12 | 24.90093 | 55.76148 | 21521 ft | 432 kts | 130° |
| 2026-04-26 16:12 | 24.86352 | 55.81637 | 22269 ft | 455 kts | 129° |
| 2026-04-26 16:13 | 24.84477 | 55.84479 | 22757 ft | 462 kts | 129° |
| 2026-04-26 16:13 | 24.82571 | 55.87353 | 23272 ft | 466 kts | 130° |
| 2026-04-26 16:13 | 24.80388 | 55.89896 | 23769 ft | 463 kts | 144° |
| 2026-04-26 16:13 | 24.77650 | 55.91708 | 24289 ft | 458 kts | 161° |
| 2026-04-26 16:14 | 24.74610 | 55.92639 | 24883 ft | 452 kts | 174° |
| 2026-04-26 16:14 | 24.71495 | 55.93249 | 25332 ft | 457 kts | 172° |
| 2026-04-26 16:14 | 24.65194 | 55.93676 | 26261 ft | 454 kts | 191° |
| 2026-04-26 16:15 | 24.62142 | 55.92811 | 26777 ft | 452 kts | 203° |
| 2026-04-26 16:15 | 24.59306 | 55.91238 | 27259 ft | 451 kts | 213° |
| 2026-04-26 16:15 | 24.56676 | 55.89429 | 27676 ft | 454 kts | 215° |
| 2026-04-26 16:16 | 24.51583 | 55.85270 | 28640 ft | 459 kts | 221° |
| 2026-04-26 16:16 | 24.49157 | 55.82970 | 28924 ft | 463 kts | 223° |
| 2026-04-26 16:16 | 24.44321 | 55.78228 | 28938 ft | 468 kts | 223° |
| 2026-04-26 16:17 | 24.39408 | 55.73521 | 28938 ft | 470 kts | 223° |
| 2026-04-26 16:17 | 24.34491 | 55.68788 | 28934 ft | 470 kts | 223° |
| 2026-04-26 16:18 | 24.27772 | 55.62713 | 28929 ft | 473 kts | 215° |
| 2026-04-26 16:19 | 24.20804 | 55.59104 | 28937 ft | 476 kts | 202° |
| 2026-04-26 16:19 | 24.18722 | 55.58340 | 28937 ft | 477 kts | 200° |
| 2026-04-26 16:20 | 24.09041 | 55.55584 | 28927 ft | 481 kts | 198° |
| 2026-04-26 16:20 | 23.99361 | 55.52713 | 28917 ft | 481 kts | 198° |
| 2026-04-26 16:21 | 23.92896 | 55.50788 | 28909 ft | 482 kts | 198° |
| 2026-04-26 16:21 | 23.86419 | 55.48863 | 28948 ft | 482 kts | 198° |
| 2026-04-26 16:22 | 23.83171 | 55.47896 | 29339 ft | 485 kts | 198° |
| 2026-04-26 16:22 | 23.79909 | 55.46919 | 29728 ft | 488 kts | 198° |
| 2026-04-26 16:22 | 23.76628 | 55.45940 | 30106 ft | 491 kts | 198° |
| 2026-04-26 16:22 | 23.73327 | 55.44956 | 30458 ft | 494 kts | 198° |
| 2026-04-26 16:23 | 23.70012 | 55.43970 | 30910 ft | 494 kts | 199° |
| 2026-04-26 16:23 | 23.66696 | 55.42984 | 31348 ft | 494 kts | 199° |
| 2026-04-26 16:23 | 23.63370 | 55.41996 | 31643 ft | 497 kts | 199° |
| 2026-04-26 16:23 | 23.60011 | 55.40997 | 31898 ft | 501 kts | 200° |
| 2026-04-26 16:24 | 23.56639 | 55.40031 | 32228 ft | 503 kts | 197° |
| 2026-04-26 16:24 | 23.53149 | 55.39466 | 32439 ft | 513 kts | 188° |
| 2026-04-26 16:24 | 23.49551 | 55.39444 | 32732 ft | 519 kts | 182° |
| 2026-04-26 16:24 | 23.45936 | 55.39775 | 32926 ft | 526 kts | 175° |
| 2026-04-26 16:25 | 23.42350 | 55.40723 | 33238 ft | 533 kts | 165° |
| 2026-04-26 16:25 | 23.38937 | 55.42329 | 33509 ft | 537 kts | 157° |
| 2026-04-26 16:25 | 23.35487 | 55.43882 | 33757 ft | 536 kts | 164° |
| 2026-04-26 16:25 | 23.31914 | 55.45049 | 33898 ft | 538 kts | 168° |
| 2026-04-26 16:26 | 23.24613 | 55.47002 | 33867 ft | 542 kts | 170° |
| 2026-04-26 16:26 | 23.17281 | 55.48985 | 33869 ft | 542 kts | 167° |
| 2026-04-26 16:27 | 23.10078 | 55.51322 | 33877 ft | 540 kts | 167° |
| 2026-04-26 16:27 | 23.02851 | 55.53593 | 33872 ft | 541 kts | 167° |
| 2026-04-26 16:28 | 22.95592 | 55.55808 | 33875 ft | 544 kts | 166° |
| 2026-04-26 16:28 | 22.88294 | 55.58044 | 33872 ft | 545 kts | 166° |
| 2026-04-26 16:29 | 22.80996 | 55.60274 | 33871 ft | 544 kts | 167° |
| 2026-04-26 16:29 | 22.73724 | 55.62486 | 33869 ft | 542 kts | 167° |
| 2026-04-26 16:30 | 22.66453 | 55.64697 | 33868 ft | 543 kts | 166° |
| 2026-04-26 16:30 | 22.59172 | 55.66915 | 33868 ft | 544 kts | 167° |
| 2026-04-26 16:31 | 22.51903 | 55.69153 | 33870 ft | 543 kts | 166° |
| 2026-04-26 16:31 | 22.44628 | 55.71379 | 33860 ft | 543 kts | 166° |
| 2026-04-26 16:32 | 22.38585 | 55.73226 | 33857 ft | 543 kts | 166° |
| 2026-04-26 16:32 | 22.30094 | 55.75820 | 33852 ft | 542 kts | 166° |
| 2026-04-26 16:33 | 22.22725 | 55.77507 | 33853 ft | 542 kts | 175° |
| 2026-04-26 16:33 | 22.15224 | 55.78250 | 33851 ft | 541 kts | 178° |
| 2026-04-26 16:34 | 22.07737 | 55.78937 | 33843 ft | 539 kts | 177° |
| 2026-04-26 16:34 | 22.00278 | 55.79681 | 33848 ft | 539 kts | 177° |
| 2026-04-26 16:35 | 21.92802 | 55.80433 | 33843 ft | 540 kts | 177° |
| 2026-04-26 16:35 | 21.85309 | 55.81188 | 33847 ft | 540 kts | 177° |
| 2026-04-26 16:36 | 21.77826 | 55.81938 | 33847 ft | 540 kts | 177° |
| 2026-04-26 16:36 | 21.70349 | 55.82683 | 33845 ft | 540 kts | 177° |
| 2026-04-26 16:37 | 21.62869 | 55.83422 | 33854 ft | 539 kts | 177° |
| 2026-04-26 16:37 | 21.55389 | 55.84154 | 33855 ft | 540 kts | 177° |
| 2026-04-26 16:38 | 21.47906 | 55.84875 | 33853 ft | 540 kts | 177° |
| 2026-04-26 16:38 | 21.40438 | 55.85611 | 33850 ft | 539 kts | 177° |
| 2026-04-26 16:39 | 21.33001 | 55.86332 | 33854 ft | 540 kts | 177° |
| 2026-04-26 16:39 | 21.25524 | 55.87063 | 33847 ft | 539 kts | 177° |
| 2026-04-26 16:40 | 21.18007 | 55.87783 | 33847 ft | 539 kts | 177° |
| 2026-04-26 16:40 | 21.10530 | 55.88504 | 33844 ft | 539 kts | 177° |
| 2026-04-26 16:41 | 21.03111 | 55.89218 | 33851 ft | 540 kts | 177° |
| 2026-04-26 16:41 | 20.95628 | 55.89934 | 33848 ft | 540 kts | 178° |
| 2026-04-26 16:42 | 20.88144 | 55.90649 | 33850 ft | 541 kts | 176° |
| 2026-04-26 16:42 | 20.80634 | 55.91387 | 33845 ft | 542 kts | 177° |
| 2026-04-26 16:43 | 20.73136 | 55.92125 | 33843 ft | 540 kts | 176° |
| 2026-04-26 16:43 | 20.65646 | 55.92857 | 33852 ft | 541 kts | 176° |
| 2026-04-26 16:44 | 20.58148 | 55.93592 | 33858 ft | 541 kts | 176° |
| 2026-04-26 16:44 | 20.50643 | 55.94328 | 33859 ft | 542 kts | 176° |
| 2026-04-26 16:45 | 20.43123 | 55.95064 | 33866 ft | 542 kts | 177° |
| 2026-04-26 16:45 | 20.35616 | 55.95797 | 33871 ft | 541 kts | 176° |
| 2026-04-26 16:46 | 20.28108 | 55.96523 | 33875 ft | 542 kts | 177° |
| 2026-04-26 16:46 | 20.20607 | 55.97239 | 33871 ft | 541 kts | 176° |
| 2026-04-26 16:47 | 20.13104 | 55.97953 | 33878 ft | 541 kts | 176° |
| 2026-04-26 16:47 | 20.05609 | 55.98604 | 33875 ft | 540 kts | 179° |
| 2026-04-26 16:48 | 19.98102 | 55.98766 | 33872 ft | 541 kts | 182° |
| 2026-04-26 16:48 | 19.90571 | 55.98848 | 33874 ft | 541 kts | 181° |
| 2026-04-26 16:49 | 19.83035 | 55.99014 | 33877 ft | 541 kts | 180° |
| 2026-04-26 16:49 | 19.75590 | 55.99197 | 34425 ft | 530 kts | 180° |
| 2026-04-26 16:50 | 19.71905 | 55.99300 | 34846 ft | 529 kts | 180° |
| 2026-04-26 16:50 | 19.68228 | 55.99380 | 35285 ft | 528 kts | 180° |
| 2026-04-26 16:50 | 19.64603 | 55.99463 | 35671 ft | 527 kts | 179° |
| 2026-04-26 16:50 | 19.60942 | 55.99551 | 36060 ft | 525 kts | 180° |
| 2026-04-26 16:51 | 19.57247 | 55.99640 | 36509 ft | 523 kts | 180° |
| 2026-04-26 16:51 | 19.53663 | 55.99658 | 36779 ft | 522 kts | 185° |
| 2026-04-26 16:51 | 19.50070 | 55.99187 | 37046 ft | 520 kts | 194° |
| 2026-04-26 16:51 | 19.46622 | 55.98099 | 37254 ft | 515 kts | 207° |
| 2026-04-26 16:52 | 19.43493 | 55.96302 | 37533 ft | 510 kts | 216° |
| 2026-04-26 16:52 | 19.42476 | 55.95640 | 37618 ft | 510 kts | 216° |
| 2026-04-26 16:52 | 19.37548 | 55.92231 | 37867 ft | 509 kts | 218° |
| 2026-04-26 16:52 | 19.34585 | 55.90178 | 37883 ft | 508 kts | 216° |
| 2026-04-26 16:53 | 19.28461 | 55.86332 | 37876 ft | 508 kts | 213° |
| 2026-04-26 16:53 | 19.22347 | 55.82645 | 37876 ft | 509 kts | 214° |
| 2026-04-26 16:54 | 19.16190 | 55.78923 | 37876 ft | 510 kts | 214° |
| 2026-04-26 16:54 | 19.10025 | 55.75196 | 37875 ft | 510 kts | 214° |
| 2026-04-26 16:55 | 19.03873 | 55.71479 | 37876 ft | 509 kts | 213° |
| 2026-04-26 16:55 | 18.97673 | 55.67755 | 37875 ft | 509 kts | 213° |
| 2026-04-26 16:56 | 18.88407 | 55.62191 | 37876 ft | 515 kts | 213° |
| 2026-04-26 16:57 | 18.82183 | 55.58457 | 37877 ft | 514 kts | 213° |
| 2026-04-26 16:57 | 18.72865 | 55.52862 | 37878 ft | 513 kts | 213° |
| 2026-04-26 16:58 | 18.68755 | 55.50392 | 37880 ft | 513 kts | 213° |
| 2026-04-26 16:59 | 18.57367 | 55.43560 | 37883 ft | 513 kts | 213° |
| 2026-04-26 17:00 | 18.44959 | 55.36147 | 37887 ft | 512 kts | 213° |
| 2026-04-26 17:00 | 18.35648 | 55.30591 | 37891 ft | 513 kts | 213° |
| 2026-04-26 17:01 | 18.29444 | 55.26883 | 37893 ft | 513 kts | 213° |
| 2026-04-26 17:01 | 18.24285 | 55.23808 | 37896 ft | 513 kts | 213° |
| 2026-04-26 17:02 | 18.18080 | 55.20112 | 37898 ft | 513 kts | 213° |
| 2026-04-26 17:02 | 18.11798 | 55.16537 | 37901 ft | 514 kts | 208° |
| 2026-04-26 17:03 | 18.05212 | 55.13558 | 37902 ft | 516 kts | 205° |
| 2026-04-26 17:03 | 17.98556 | 55.10729 | 37903 ft | 515 kts | 206° |
| 2026-04-26 17:04 | 17.91966 | 55.07819 | 37899 ft | 512 kts | 205° |
| 2026-04-26 17:04 | 17.85482 | 55.04924 | 37906 ft | 502 kts | 207° |
| 2026-04-26 17:05 | 17.79115 | 55.02069 | 37908 ft | 494 kts | 208° |
| 2026-04-26 17:05 | 17.72800 | 54.99238 | 37904 ft | 496 kts | 207° |
| 2026-04-26 17:06 | 17.66393 | 54.96372 | 37911 ft | 505 kts | 207° |
| 2026-04-26 17:06 | 17.59959 | 54.93496 | 37917 ft | 499 kts | 207° |
| 2026-04-26 17:07 | 17.53566 | 54.90636 | 37909 ft | 504 kts | 206° |
| 2026-04-26 17:07 | 17.47055 | 54.87729 | 37920 ft | 511 kts | 207° |
| 2026-04-26 17:08 | 17.40539 | 54.84827 | 37917 ft | 506 kts | 207° |
| 2026-04-26 17:08 | 17.34075 | 54.81949 | 37910 ft | 512 kts | 205° |
| 2026-04-26 17:09 | 17.28553 | 54.79483 | 37910 ft | 516 kts | 206° |
| 2026-04-26 17:09 | 17.21323 | 54.75171 | 37910 ft | 514 kts | 216° |
| 2026-04-26 17:10 | 17.15365 | 54.71046 | 37906 ft | 513 kts | 216° |
| 2026-04-26 17:10 | 17.09371 | 54.66997 | 37905 ft | 513 kts | 216° |
| 2026-04-26 17:11 | 17.03360 | 54.62980 | 37904 ft | 513 kts | 215° |
| 2026-04-26 17:11 | 16.97290 | 54.58930 | 37905 ft | 515 kts | 215° |
| 2026-04-26 17:12 | 16.88249 | 54.52900 | 37905 ft | 513 kts | 216° |
| 2026-04-26 17:13 | 16.79196 | 54.46866 | 37915 ft | 517 kts | 215° |
| 2026-04-26 17:14 | 16.70125 | 54.40826 | 37917 ft | 517 kts | 215° |
| 2026-04-26 17:14 | 16.61038 | 54.34782 | 37917 ft | 517 kts | 215° |
| 2026-04-26 17:15 | 16.51952 | 54.28724 | 37918 ft | 516 kts | 215° |
| 2026-04-26 17:16 | 16.45900 | 54.24699 | 37914 ft | 516 kts | 215° |
| 2026-04-26 17:16 | 16.39850 | 54.20681 | 37914 ft | 516 kts | 215° |
| 2026-04-26 17:17 | 16.33794 | 54.16662 | 37912 ft | 516 kts | 215° |
| 2026-04-26 17:17 | 16.27730 | 54.12641 | 37911 ft | 517 kts | 215° |
| 2026-04-26 17:18 | 16.21666 | 54.08623 | 37913 ft | 516 kts | 215° |
| 2026-04-26 17:18 | 16.15609 | 54.04612 | 37909 ft | 516 kts | 215° |
| 2026-04-26 17:19 | 16.06515 | 53.98587 | 37906 ft | 517 kts | 215° |
| 2026-04-26 17:19 | 16.00446 | 53.94580 | 37907 ft | 517 kts | 215° |
| 2026-04-26 17:20 | 15.95399 | 53.91249 | 37904 ft | 517 kts | 214° |
| 2026-04-26 17:20 | 15.88301 | 53.86567 | 37912 ft | 517 kts | 215° |
| 2026-04-26 17:21 | 15.82252 | 53.82531 | 37914 ft | 517 kts | 215° |
| 2026-04-26 17:21 | 15.76206 | 53.78490 | 37910 ft | 517 kts | 215° |
| 2026-04-26 17:22 | 15.70156 | 53.74449 | 37914 ft | 517 kts | 215° |
| 2026-04-26 17:22 | 15.64120 | 53.70405 | 37915 ft | 516 kts | 215° |
| 2026-04-26 17:23 | 15.58074 | 53.66373 | 37910 ft | 517 kts | 215° |
| 2026-04-26 17:23 | 15.52016 | 53.62338 | 37929 ft | 517 kts | 215° |
| 2026-04-26 17:24 | 15.45925 | 53.58283 | 37930 ft | 517 kts | 215° |
| 2026-04-26 17:24 | 15.39856 | 53.54282 | 37919 ft | 517 kts | 214° |
| 2026-04-26 17:25 | 15.33722 | 53.50386 | 37929 ft | 517 kts | 214° |
| 2026-04-26 17:25 | 15.27637 | 53.46506 | 37924 ft | 517 kts | 214° |
| 2026-04-26 17:26 | 15.21462 | 53.42560 | 37939 ft | 517 kts | 214° |
| 2026-04-26 17:26 | 15.15393 | 53.38681 | 37971 ft | 516 kts | 214° |
| 2026-04-26 17:27 | 15.09287 | 53.34769 | 37966 ft | 516 kts | 214° |
| 2026-04-26 17:27 | 15.03182 | 53.30865 | 37967 ft | 516 kts | 214° |
| 2026-04-26 17:28 | 14.97029 | 53.26936 | 37976 ft | 516 kts | 214° |
| 2026-04-26 17:28 | 14.90923 | 53.23035 | 37966 ft | 517 kts | 213° |
| 2026-04-26 17:29 | 14.85828 | 53.19783 | 37967 ft | 518 kts | 214° |
| 2026-04-26 17:29 | 14.78707 | 53.15248 | 37989 ft | 517 kts | 213° |
| 2026-04-26 17:30 | 14.72585 | 53.11353 | 37983 ft | 516 kts | 213° |
| 2026-04-26 17:30 | 14.66526 | 53.07373 | 37982 ft | 515 kts | 219° |
| 2026-04-26 17:31 | 14.61144 | 53.02510 | 37982 ft | 514 kts | 227° |
| 2026-04-26 17:31 | 14.56212 | 52.97190 | 37980 ft | 513 kts | 230° |
| 2026-04-26 17:32 | 14.51312 | 52.91853 | 37983 ft | 511 kts | 229° |
| 2026-04-26 17:32 | 14.46352 | 52.86596 | 37983 ft | 511 kts | 229° |
| 2026-04-26 17:33 | 14.41371 | 52.81360 | 37984 ft | 512 kts | 229° |
| 2026-04-26 17:34 | 14.33877 | 52.73475 | 37986 ft | 514 kts | 228° |
| 2026-04-26 17:34 | 14.28869 | 52.68224 | 37986 ft | 513 kts | 228° |
| 2026-04-26 17:35 | 14.23863 | 52.62980 | 37987 ft | 512 kts | 228° |
| 2026-04-26 17:35 | 14.18859 | 52.57743 | 37987 ft | 514 kts | 228° |
| 2026-04-26 17:36 | 14.13838 | 52.52493 | 37988 ft | 515 kts | 228° |
| 2026-04-26 17:36 | 14.08815 | 52.47243 | 37993 ft | 513 kts | 228° |
| 2026-04-26 17:37 | 14.03811 | 52.42016 | 37988 ft | 512 kts | 227° |
| 2026-04-26 17:37 | 13.98810 | 52.36796 | 37987 ft | 513 kts | 227° |
| 2026-04-26 17:38 | 13.91291 | 52.28957 | 37986 ft | 512 kts | 228° |
| 2026-04-26 17:38 | 13.86290 | 52.23743 | 37986 ft | 511 kts | 228° |
| 2026-04-26 17:39 | 13.81288 | 52.18535 | 37986 ft | 511 kts | 228° |
| 2026-04-26 17:39 | 13.77098 | 52.14175 | 37984 ft | 512 kts | 227° |
| 2026-04-26 17:40 | 13.72942 | 52.09838 | 37981 ft | 513 kts | 227° |
| 2026-04-26 17:40 | 13.67070 | 52.03738 | 37966 ft | 514 kts | 227° |
| 2026-04-26 17:41 | 13.62042 | 51.98518 | 37971 ft | 513 kts | 227° |
| 2026-04-26 17:41 | 13.57055 | 51.93343 | 37972 ft | 513 kts | 227° |
| 2026-04-26 17:42 | 13.52041 | 51.88113 | 37942 ft | 514 kts | 228° |
| 2026-04-26 17:42 | 13.47056 | 51.82854 | 37934 ft | 514 kts | 228° |
| 2026-04-26 17:43 | 13.42059 | 51.77592 | 37938 ft | 514 kts | 228° |
| 2026-04-26 17:43 | 13.37068 | 51.72344 | 37940 ft | 513 kts | 228° |
| 2026-04-26 17:44 | 13.32075 | 51.67094 | 37926 ft | 514 kts | 228° |
| 2026-04-26 17:44 | 13.27088 | 51.61839 | 37918 ft | 514 kts | 228° |
| 2026-04-26 17:45 | 13.22095 | 51.56583 | 37918 ft | 514 kts | 228° |
| 2026-04-26 17:45 | 13.17100 | 51.51333 | 37919 ft | 513 kts | 228° |
| 2026-04-26 17:46 | 13.12115 | 51.46099 | 37916 ft | 513 kts | 228° |
| 2026-04-26 17:46 | 13.07122 | 51.40860 | 37912 ft | 513 kts | 228° |
| 2026-04-26 17:47 | 13.02972 | 51.36506 | 37912 ft | 513 kts | 227° |
| 2026-04-26 17:47 | 12.97132 | 51.30389 | 37905 ft | 514 kts | 227° |
| 2026-04-26 17:48 | 12.92128 | 51.25148 | 37907 ft | 514 kts | 227° |
| 2026-04-26 17:48 | 12.87130 | 51.19914 | 37906 ft | 514 kts | 227° |
| 2026-04-26 17:49 | 12.82127 | 51.14672 | 37907 ft | 514 kts | 227° |
| 2026-04-26 17:49 | 12.77118 | 51.09435 | 37907 ft | 515 kts | 227° |
| 2026-04-26 17:50 | 12.72104 | 51.04201 | 37907 ft | 514 kts | 227° |
| 2026-04-26 17:50 | 12.67093 | 50.98972 | 37906 ft | 514 kts | 227° |
| 2026-04-26 17:51 | 12.62082 | 50.93742 | 37907 ft | 514 kts | 227° |
| 2026-04-26 17:51 | 12.57104 | 50.88566 | 37905 ft | 514 kts | 227° |
| 2026-04-26 17:52 | 12.52090 | 50.83354 | 37906 ft | 514 kts | 227° |
| 2026-04-26 17:52 | 12.47075 | 50.78144 | 37903 ft | 514 kts | 227° |
| 2026-04-26 17:53 | 12.42065 | 50.72941 | 37908 ft | 513 kts | 227° |
| 2026-04-26 17:54 | 12.34561 | 50.65121 | 37904 ft | 513 kts | 227° |
| 2026-04-26 17:54 | 12.29557 | 50.59926 | 37905 ft | 513 kts | 227° |
| 2026-04-26 17:55 | 12.24548 | 50.54734 | 37906 ft | 513 kts | 227° |
| 2026-04-26 17:55 | 12.19537 | 50.49541 | 37902 ft | 513 kts | 227° |
| 2026-04-26 17:56 | 12.14563 | 50.44331 | 37906 ft | 512 kts | 229° |
| 2026-04-26 17:57 | 12.05097 | 50.33468 | 37903 ft | 511 kts | 230° |
| 2026-04-26 17:57 | 12.00351 | 50.28065 | 37904 ft | 510 kts | 230° |
| 2026-04-26 17:58 | 11.90851 | 50.17280 | 37905 ft | 511 kts | 230° |
| 2026-04-26 17:59 | 11.83746 | 50.09220 | 37909 ft | 504 kts | 231° |
| 2026-04-26 17:59 | 11.79074 | 50.03930 | 37906 ft | 499 kts | 231° |
| 2026-04-26 18:00 | 11.74485 | 49.98737 | 37914 ft | 491 kts | 231° |
| 2026-04-26 18:00 | 11.69878 | 49.93530 | 37913 ft | 497 kts | 231° |
| 2026-04-26 18:01 | 11.65241 | 49.88287 | 37920 ft | 496 kts | 231° |
| 2026-04-26 18:01 | 11.60642 | 49.83090 | 37922 ft | 491 kts | 231° |
| 2026-04-26 18:02 | 11.56861 | 49.78812 | 37926 ft | 486 kts | 231° |
| 2026-04-26 18:02 | 11.51586 | 49.72861 | 37928 ft | 483 kts | 231° |
| 2026-04-26 18:03 | 11.47054 | 49.67751 | 37940 ft | 490 kts | 230° |
| 2026-04-26 18:03 | 11.42470 | 49.62586 | 37953 ft | 498 kts | 230° |
| 2026-04-26 18:04 | 11.37784 | 49.57323 | 37951 ft | 497 kts | 229° |
| 2026-04-26 18:05 | 11.30482 | 49.49865 | 37953 ft | 500 kts | 226° |
| 2026-04-26 18:05 | 11.25493 | 49.44829 | 37956 ft | 503 kts | 226° |
| 2026-04-26 18:06 | 11.20535 | 49.39781 | 37936 ft | 505 kts | 226° |
| 2026-04-26 18:06 | 11.15569 | 49.34711 | 37928 ft | 506 kts | 226° |
| 2026-04-26 18:07 | 11.10597 | 49.29615 | 37914 ft | 508 kts | 226° |
| 2026-04-26 18:07 | 11.05610 | 49.24509 | 37911 ft | 509 kts | 226° |
| 2026-04-26 18:08 | 11.00619 | 49.19406 | 37911 ft | 509 kts | 226° |
| 2026-04-26 18:08 | 10.95628 | 49.14306 | 37905 ft | 508 kts | 226° |
| 2026-04-26 18:09 | 10.90639 | 49.09210 | 37909 ft | 508 kts | 226° |
| 2026-04-26 18:09 | 10.85647 | 49.04114 | 37915 ft | 508 kts | 226° |
| 2026-04-26 18:10 | 10.80655 | 48.99024 | 37920 ft | 508 kts | 226° |
| 2026-04-26 18:10 | 10.75660 | 48.93930 | 37914 ft | 508 kts | 226° |
| 2026-04-26 18:11 | 10.70665 | 48.88838 | 37922 ft | 508 kts | 226° |
| 2026-04-26 18:11 | 10.65674 | 48.83755 | 37935 ft | 508 kts | 226° |
| 2026-04-26 18:12 | 10.60686 | 48.78679 | 37940 ft | 508 kts | 226° |
| 2026-04-26 18:12 | 10.55694 | 48.73599 | 37932 ft | 508 kts | 226° |
| 2026-04-26 18:13 | 10.50701 | 48.68518 | 37947 ft | 507 kts | 226° |
| 2026-04-26 18:13 | 10.45719 | 48.63453 | 37948 ft | 507 kts | 226° |
| 2026-04-26 18:14 | 10.40731 | 48.58385 | 37947 ft | 506 kts | 226° |
| 2026-04-26 18:14 | 10.35752 | 48.53330 | 37963 ft | 506 kts | 226° |
| 2026-04-26 18:15 | 10.30771 | 48.48272 | 37940 ft | 506 kts | 226° |
| 2026-04-26 18:15 | 10.25792 | 48.43220 | 37925 ft | 505 kts | 226° |
| 2026-04-26 18:16 | 10.20854 | 48.38210 | 37919 ft | 505 kts | 226° |
| 2026-04-26 18:16 | 10.13370 | 48.30625 | 37926 ft | 505 kts | 226° |
| 2026-04-26 18:17 | 10.08397 | 48.25587 | 37895 ft | 505 kts | 226° |
| 2026-04-26 18:17 | 10.03464 | 48.20592 | 37885 ft | 503 kts | 226° |
| 2026-04-26 18:18 | 9.98511 | 48.15579 | 37888 ft | 503 kts | 226° |
| 2026-04-26 18:18 | 9.93552 | 48.10562 | 37887 ft | 504 kts | 226° |
| 2026-04-26 18:19 | 9.88581 | 48.05536 | 37882 ft | 504 kts | 226° |
| 2026-04-26 18:19 | 9.83613 | 48.00514 | 37877 ft | 504 kts | 226° |
| 2026-04-26 18:20 | 9.78645 | 47.95495 | 37878 ft | 503 kts | 226° |
| 2026-04-26 18:20 | 9.75329 | 47.92146 | 37878 ft | 504 kts | 226° |
| 2026-04-26 18:21 | 9.69559 | 47.86321 | 37876 ft | 503 kts | 226° |
| 2026-04-26 18:21 | 9.64599 | 47.81316 | 37878 ft | 503 kts | 226° |
| 2026-04-26 18:22 | 9.59644 | 47.76318 | 37876 ft | 503 kts | 226° |
| 2026-04-26 18:22 | 9.54687 | 47.71321 | 37876 ft | 503 kts | 226° |
| 2026-04-26 18:23 | 9.49732 | 47.66327 | 37876 ft | 502 kts | 226° |
| 2026-04-26 18:23 | 9.44772 | 47.61331 | 37876 ft | 502 kts | 226° |
| 2026-04-26 18:24 | 9.39828 | 47.56347 | 37876 ft | 502 kts | 226° |
| 2026-04-26 18:24 | 9.34877 | 47.51362 | 37876 ft | 502 kts | 226° |
| 2026-04-26 18:25 | 9.29917 | 47.46374 | 37876 ft | 502 kts | 226° |
| 2026-04-26 18:25 | 9.24963 | 47.41394 | 37876 ft | 502 kts | 226° |
| 2026-04-26 18:26 | 9.20011 | 47.36419 | 37876 ft | 502 kts | 226° |
| 2026-04-26 18:26 | 9.15117 | 47.31385 | 37876 ft | 502 kts | 227° |
| 2026-04-26 18:27 | 9.10294 | 47.26271 | 37876 ft | 502 kts | 227° |
| 2026-04-26 18:27 | 9.05464 | 47.21174 | 37876 ft | 502 kts | 227° |
| 2026-04-26 18:28 | 9.00618 | 47.16075 | 37876 ft | 502 kts | 227° |
| 2026-04-26 18:28 | 8.95773 | 47.10982 | 37875 ft | 503 kts | 226° |
| 2026-04-26 18:29 | 8.90928 | 47.05878 | 37876 ft | 503 kts | 227° |
| 2026-04-26 18:29 | 8.86080 | 47.00778 | 37876 ft | 503 kts | 227° |
| 2026-04-26 18:30 | 8.81233 | 46.95685 | 37876 ft | 503 kts | 226° |
| 2026-04-26 18:30 | 8.76379 | 46.90587 | 37876 ft | 503 kts | 227° |
| 2026-04-26 18:31 | 8.71523 | 46.85489 | 37875 ft | 503 kts | 226° |
| 2026-04-26 18:31 | 8.66665 | 46.80392 | 37876 ft | 503 kts | 226° |
| 2026-04-26 18:32 | 8.61804 | 46.75293 | 37876 ft | 503 kts | 226° |
| 2026-04-26 18:32 | 8.56951 | 46.70206 | 37876 ft | 503 kts | 227° |
| 2026-04-26 18:33 | 8.52100 | 46.65121 | 37876 ft | 502 kts | 227° |
| 2026-04-26 18:33 | 8.47282 | 46.60073 | 37876 ft | 503 kts | 227° |
| 2026-04-26 18:34 | 8.42424 | 46.54981 | 37876 ft | 503 kts | 227° |
| 2026-04-26 18:34 | 8.37567 | 46.49893 | 37876 ft | 502 kts | 227° |
| 2026-04-26 18:35 | 8.32714 | 46.44817 | 37876 ft | 502 kts | 226° |
| 2026-04-26 18:35 | 8.27860 | 46.39741 | 37876 ft | 502 kts | 226° |
| 2026-04-26 18:36 | 8.23002 | 46.34664 | 37876 ft | 503 kts | 226° |
| 2026-04-26 18:36 | 8.18166 | 46.29554 | 37876 ft | 503 kts | 227° |
| 2026-04-26 18:37 | 8.13358 | 46.24432 | 37876 ft | 503 kts | 227° |
| 2026-04-26 18:37 | 8.08540 | 46.19305 | 37875 ft | 503 kts | 227° |
| 2026-04-26 18:38 | 8.03725 | 46.14185 | 37876 ft | 503 kts | 227° |
| 2026-04-26 18:38 | 7.98909 | 46.09066 | 37877 ft | 503 kts | 227° |
| 2026-04-26 18:39 | 7.94097 | 46.03943 | 37877 ft | 503 kts | 227° |
| 2026-04-26 18:39 | 7.89289 | 45.98829 | 37876 ft | 503 kts | 227° |
| 2026-04-26 18:40 | 7.84476 | 45.93710 | 37876 ft | 503 kts | 227° |
| 2026-04-26 18:40 | 7.79628 | 45.88563 | 37898 ft | 502 kts | 227° |
| 2026-04-26 18:41 | 7.74819 | 45.83459 | 37903 ft | 502 kts | 227° |
| 2026-04-26 18:41 | 7.70008 | 45.78357 | 37906 ft | 502 kts | 227° |
| 2026-04-26 18:42 | 7.65194 | 45.73253 | 37907 ft | 502 kts | 227° |
| 2026-04-26 18:42 | 7.60403 | 45.68191 | 37955 ft | 501 kts | 227° |
| 2026-04-26 18:43 | 7.55561 | 45.63074 | 37971 ft | 501 kts | 227° |
| 2026-04-26 18:43 | 7.50748 | 45.57988 | 37946 ft | 501 kts | 227° |
| 2026-04-26 18:44 | 7.45944 | 45.52913 | 37958 ft | 500 kts | 227° |
| 2026-04-26 18:44 | 7.41152 | 45.47844 | 37988 ft | 499 kts | 227° |
| 2026-04-26 18:45 | 7.36364 | 45.42781 | 38050 ft | 499 kts | 227° |
| 2026-04-26 18:45 | 7.31579 | 45.37725 | 38059 ft | 499 kts | 227° |
| 2026-04-26 18:46 | 7.26793 | 45.32671 | 38081 ft | 498 kts | 227° |
| 2026-04-26 18:46 | 7.22016 | 45.27630 | 38088 ft | 497 kts | 227° |
| 2026-04-26 18:47 | 7.17239 | 45.22589 | 38073 ft | 497 kts | 227° |
| 2026-04-26 18:47 | 7.12472 | 45.17561 | 38117 ft | 496 kts | 227° |
| 2026-04-26 18:48 | 7.07706 | 45.12535 | 38125 ft | 496 kts | 226° |
| 2026-04-26 18:48 | 7.02932 | 45.07503 | 38126 ft | 497 kts | 226° |
| 2026-04-26 18:49 | 6.98159 | 45.02474 | 38117 ft | 496 kts | 226° |
| 2026-04-26 18:49 | 6.93391 | 44.97449 | 38099 ft | 497 kts | 226° |
| 2026-04-26 18:50 | 6.88608 | 44.92407 | 38086 ft | 498 kts | 226° |
| 2026-04-26 18:50 | 6.83815 | 44.87362 | 38078 ft | 499 kts | 226° |
| 2026-04-26 18:51 | 6.79023 | 44.82320 | 38070 ft | 498 kts | 226° |
| 2026-04-26 18:51 | 6.74231 | 44.77279 | 38068 ft | 498 kts | 226° |
| 2026-04-26 18:52 | 6.69442 | 44.72244 | 38082 ft | 498 kts | 226° |
| 2026-04-26 18:52 | 6.64632 | 44.67212 | 38062 ft | 499 kts | 226° |
| 2026-04-26 18:53 | 6.59828 | 44.62184 | 38048 ft | 499 kts | 226° |
| 2026-04-26 18:53 | 6.55051 | 44.57183 | 38042 ft | 499 kts | 226° |
| 2026-04-26 18:54 | 6.50242 | 44.52151 | 38046 ft | 499 kts | 226° |
| 2026-04-26 18:54 | 6.45436 | 44.47116 | 38020 ft | 499 kts | 226° |
| 2026-04-26 18:55 | 6.40628 | 44.42079 | 38013 ft | 499 kts | 226° |
| 2026-04-26 18:55 | 6.35818 | 44.37045 | 37994 ft | 499 kts | 225° |
| 2026-04-26 18:56 | 6.31006 | 44.32010 | 37971 ft | 500 kts | 226° |
| 2026-04-26 18:56 | 6.26190 | 44.26974 | 37963 ft | 500 kts | 225° |
| 2026-04-26 18:57 | 6.22968 | 44.23605 | 37956 ft | 500 kts | 225° |
| 2026-04-26 18:57 | 6.16547 | 44.16894 | 37942 ft | 500 kts | 226° |
| 2026-04-26 18:58 | 6.11722 | 44.11852 | 37922 ft | 501 kts | 226° |
| 2026-04-26 18:58 | 6.06900 | 44.06815 | 37921 ft | 501 kts | 226° |
| 2026-04-26 18:59 | 6.02061 | 44.01762 | 37921 ft | 501 kts | 226° |
| 2026-04-26 18:59 | 5.97231 | 43.96719 | 37920 ft | 501 kts | 225° |
| 2026-04-26 19:00 | 5.92401 | 43.91677 | 37917 ft | 501 kts | 225° |
| 2026-04-26 19:00 | 5.88351 | 43.87448 | 37919 ft | 501 kts | 226° |
| 2026-04-26 19:01 | 5.83522 | 43.82408 | 37927 ft | 501 kts | 225° |
| 2026-04-26 19:01 | 5.78689 | 43.77369 | 37945 ft | 501 kts | 226° |
| 2026-04-26 19:02 | 5.73882 | 43.72357 | 37948 ft | 501 kts | 226° |
| 2026-04-26 19:02 | 5.69832 | 43.68137 | 37969 ft | 501 kts | 225° |
| 2026-04-26 19:03 | 5.64218 | 43.62297 | 37988 ft | 500 kts | 225° |
| 2026-04-26 19:03 | 5.59381 | 43.57288 | 38022 ft | 499 kts | 225° |
| 2026-04-26 19:04 | 5.54554 | 43.52287 | 38029 ft | 499 kts | 225° |
| 2026-04-26 19:04 | 5.49730 | 43.47288 | 38034 ft | 498 kts | 225° |
| 2026-04-26 19:05 | 5.42495 | 43.39791 | 38039 ft | 498 kts | 225° |
| 2026-04-26 19:06 | 5.37683 | 43.34799 | 38042 ft | 497 kts | 225° |
| 2026-04-26 19:06 | 5.32867 | 43.29808 | 38047 ft | 497 kts | 225° |
| 2026-04-26 19:07 | 5.28052 | 43.24820 | 38047 ft | 498 kts | 225° |
| 2026-04-26 19:07 | 5.23237 | 43.19833 | 38048 ft | 497 kts | 225° |
| 2026-04-26 19:08 | 5.18426 | 43.14852 | 38049 ft | 497 kts | 225° |
| 2026-04-26 19:08 | 5.13609 | 43.09867 | 38052 ft | 497 kts | 225° |
| 2026-04-26 19:09 | 5.08797 | 43.04887 | 38052 ft | 497 kts | 225° |
| 2026-04-26 19:09 | 5.03977 | 42.99901 | 38052 ft | 497 kts | 225° |
| 2026-04-26 19:10 | 4.99166 | 42.94924 | 38052 ft | 497 kts | 225° |
| 2026-04-26 19:10 | 4.94353 | 42.89947 | 38053 ft | 497 kts | 225° |
| 2026-04-26 19:11 | 4.89533 | 42.84963 | 38053 ft | 497 kts | 225° |
| 2026-04-26 19:11 | 4.84717 | 42.79985 | 38053 ft | 497 kts | 225° |
| 2026-04-26 19:12 | 4.79899 | 42.75006 | 38053 ft | 497 kts | 225° |
| 2026-04-26 19:12 | 4.75079 | 42.70026 | 38053 ft | 497 kts | 225° |
| 2026-04-26 19:13 | 4.70262 | 42.65051 | 38052 ft | 497 kts | 225° |
| 2026-04-26 19:13 | 4.65434 | 42.60065 | 38053 ft | 498 kts | 225° |
| 2026-04-26 19:14 | 4.60615 | 42.55088 | 38053 ft | 498 kts | 225° |
| 2026-04-26 19:14 | 4.55783 | 42.50100 | 38053 ft | 498 kts | 225° |
| 2026-04-26 19:15 | 4.50965 | 42.45128 | 38053 ft | 497 kts | 225° |
| 2026-04-26 19:15 | 4.46146 | 42.40155 | 38053 ft | 498 kts | 225° |
| 2026-04-26 19:16 | 4.41313 | 42.35168 | 38053 ft | 499 kts | 225° |
| 2026-04-26 19:16 | 4.36477 | 42.30180 | 38053 ft | 499 kts | 225° |
| 2026-04-26 19:17 | 4.31650 | 42.25202 | 38053 ft | 498 kts | 225° |
| 2026-04-26 19:17 | 4.26822 | 42.20224 | 38053 ft | 498 kts | 225° |
| 2026-04-26 19:18 | 4.21998 | 42.15250 | 38053 ft | 498 kts | 225° |
| 2026-04-26 19:18 | 4.17164 | 42.10267 | 38053 ft | 498 kts | 225° |
| 2026-04-26 19:19 | 4.12208 | 42.05156 | 38053 ft | 498 kts | 225° |
| 2026-04-26 19:19 | 4.07345 | 42.00146 | 38053 ft | 498 kts | 225° |
| 2026-04-26 19:20 | 4.02512 | 41.95167 | 38053 ft | 498 kts | 225° |
| 2026-04-26 19:20 | 3.97679 | 41.90191 | 38053 ft | 498 kts | 225° |
| 2026-04-26 19:21 | 3.92760 | 41.85242 | 38053 ft | 498 kts | 222° |
| 2026-04-26 19:21 | 3.87460 | 41.80770 | 38053 ft | 498 kts | 218° |
| 2026-04-26 19:22 | 3.82013 | 41.76485 | 38053 ft | 498 kts | 218° |
| 2026-04-26 19:22 | 3.76613 | 41.72143 | 38053 ft | 498 kts | 218° |
| 2026-04-26 19:23 | 3.71241 | 41.67772 | 38053 ft | 497 kts | 218° |
| 2026-04-26 19:23 | 3.65846 | 41.63364 | 38053 ft | 498 kts | 218° |
| 2026-04-26 19:24 | 3.60489 | 41.58982 | 38053 ft | 498 kts | 218° |
| 2026-04-26 19:24 | 3.52447 | 41.52403 | 38053 ft | 498 kts | 218° |
| 2026-04-26 19:25 | 3.48894 | 41.49497 | 38053 ft | 498 kts | 218° |
| 2026-04-26 19:25 | 3.41754 | 41.43659 | 38053 ft | 498 kts | 218° |
| 2026-04-26 19:26 | 3.36394 | 41.39277 | 38053 ft | 497 kts | 218° |
| 2026-04-26 19:26 | 3.31036 | 41.34897 | 38053 ft | 497 kts | 218° |
| 2026-04-26 19:27 | 3.25684 | 41.30522 | 38053 ft | 497 kts | 218° |
| 2026-04-26 19:27 | 3.20322 | 41.26141 | 38053 ft | 497 kts | 218° |
| 2026-04-26 19:28 | 3.14969 | 41.21767 | 38053 ft | 497 kts | 218° |
| 2026-04-26 19:28 | 3.09618 | 41.17395 | 38053 ft | 497 kts | 218° |
| 2026-04-26 19:29 | 3.04226 | 41.12990 | 38053 ft | 497 kts | 218° |
| 2026-04-26 19:29 | 2.98910 | 41.08649 | 38051 ft | 497 kts | 218° |
| 2026-04-26 19:30 | 2.93554 | 41.04274 | 38044 ft | 497 kts | 218° |
| 2026-04-26 19:30 | 2.89973 | 41.01351 | 38044 ft | 497 kts | 218° |
| 2026-04-26 19:31 | 2.83717 | 40.96243 | 38049 ft | 497 kts | 218° |
| 2026-04-26 19:31 | 2.78362 | 40.91871 | 38041 ft | 497 kts | 218° |
| 2026-04-26 19:32 | 2.73006 | 40.87498 | 38030 ft | 497 kts | 218° |
| 2026-04-26 19:32 | 2.67651 | 40.83127 | 38024 ft | 497 kts | 218° |
| 2026-04-26 19:33 | 2.62287 | 40.78749 | 38004 ft | 497 kts | 218° |
| 2026-04-26 19:33 | 2.56975 | 40.74413 | 38007 ft | 497 kts | 218° |
| 2026-04-26 19:34 | 2.51583 | 40.70014 | 38008 ft | 497 kts | 218° |
| 2026-04-26 19:34 | 2.46260 | 40.65671 | 38001 ft | 497 kts | 218° |
| 2026-04-26 19:35 | 2.40865 | 40.61272 | 37940 ft | 497 kts | 218° |
| 2026-04-26 19:35 | 2.35494 | 40.56933 | 37935 ft | 496 kts | 217° |
| 2026-04-26 19:36 | 2.31012 | 40.53350 | 37949 ft | 497 kts | 217° |
| 2026-04-26 19:36 | 2.24721 | 40.48310 | 37921 ft | 499 kts | 217° |
| 2026-04-26 19:37 | 2.19309 | 40.43971 | 37913 ft | 498 kts | 217° |
| 2026-04-26 19:37 | 2.13896 | 40.39630 | 37907 ft | 499 kts | 217° |
| 2026-04-26 19:38 | 2.08476 | 40.35282 | 37906 ft | 499 kts | 217° |
| 2026-04-26 19:38 | 2.03069 | 40.30945 | 37905 ft | 498 kts | 217° |
| 2026-04-26 19:39 | 1.97654 | 40.26603 | 37908 ft | 499 kts | 217° |
| 2026-04-26 19:39 | 1.92244 | 40.22265 | 37906 ft | 499 kts | 217° |
| 2026-04-26 19:40 | 1.86819 | 40.17915 | 37908 ft | 500 kts | 217° |
| 2026-04-26 19:40 | 1.81395 | 40.13568 | 37910 ft | 499 kts | 217° |
| 2026-04-26 19:41 | 1.75975 | 40.09224 | 37912 ft | 499 kts | 217° |
| 2026-04-26 19:41 | 1.71556 | 40.05432 | 37917 ft | 500 kts | 221° |
| 2026-04-26 19:42 | 1.65784 | 39.99762 | 37911 ft | 500 kts | 224° |
| 2026-04-26 19:42 | 1.60849 | 39.94858 | 37916 ft | 501 kts | 223° |
| 2026-04-26 19:43 | 1.55871 | 39.89992 | 37952 ft | 500 kts | 223° |
| 2026-04-26 19:43 | 1.50842 | 39.85106 | 37964 ft | 501 kts | 223° |
| 2026-04-26 19:44 | 1.45875 | 39.80288 | 37944 ft | 500 kts | 223° |
| 2026-04-26 19:44 | 1.40850 | 39.75418 | 37946 ft | 500 kts | 223° |
| 2026-04-26 19:45 | 1.35861 | 39.70585 | 38010 ft | 500 kts | 223° |
| 2026-04-26 19:45 | 1.30866 | 39.65747 | 38025 ft | 501 kts | 223° |
| 2026-04-26 19:46 | 1.25870 | 39.60909 | 38038 ft | 500 kts | 223° |
| 2026-04-26 19:46 | 1.20896 | 39.56092 | 38058 ft | 496 kts | 223° |
| 2026-04-26 19:47 | 1.16775 | 39.52101 | 38067 ft | 497 kts | 223° |
| 2026-04-26 19:47 | 1.10975 | 39.46486 | 38077 ft | 496 kts | 223° |
| 2026-04-26 19:48 | 1.06017 | 39.41685 | 38081 ft | 495 kts | 223° |
| 2026-04-26 19:48 | 1.01068 | 39.36894 | 38092 ft | 496 kts | 223° |
| 2026-04-26 19:49 | 0.96120 | 39.32103 | 38101 ft | 493 kts | 223° |
| 2026-04-26 19:49 | 0.91209 | 39.27349 | 38108 ft | 491 kts | 223° |
| 2026-04-26 19:50 | 0.86304 | 39.22601 | 38108 ft | 491 kts | 223° |
| 2026-04-26 19:50 | 0.81391 | 39.17845 | 38108 ft | 492 kts | 223° |
| 2026-04-26 19:51 | 0.76502 | 39.13113 | 38109 ft | 492 kts | 223° |
| 2026-04-26 19:51 | 0.71591 | 39.08359 | 38110 ft | 491 kts | 223° |
| 2026-04-26 19:52 | 0.66689 | 39.03614 | 38103 ft | 491 kts | 223° |
| 2026-04-26 19:52 | 0.61774 | 38.98858 | 38102 ft | 492 kts | 223° |
| 2026-04-26 19:53 | 0.56856 | 38.94098 | 38102 ft | 492 kts | 223° |
| 2026-04-26 19:53 | 0.51943 | 38.89342 | 38102 ft | 492 kts | 223° |
| 2026-04-26 19:54 | 0.47032 | 38.84590 | 38096 ft | 491 kts | 223° |
| 2026-04-26 19:54 | 0.42113 | 38.79829 | 38094 ft | 491 kts | 223° |
| 2026-04-26 19:55 | 0.37206 | 38.75080 | 38091 ft | 491 kts | 223° |
| 2026-04-26 19:55 | 0.32298 | 38.70331 | 38085 ft | 491 kts | 223° |
| 2026-04-26 19:56 | 0.27387 | 38.65578 | 38088 ft | 492 kts | 223° |
| 2026-04-26 19:56 | 0.22475 | 38.60825 | 38088 ft | 491 kts | 223° |
| 2026-04-26 19:57 | 0.17604 | 38.56111 | 38088 ft | 491 kts | 223° |
| 2026-04-26 19:57 | 0.12693 | 38.51358 | 38085 ft | 491 kts | 223° |
| 2026-04-26 19:58 | 0.07782 | 38.46606 | 38085 ft | 491 kts | 223° |
| 2026-04-26 19:58 | 0.02871 | 38.41854 | 38085 ft | 491 kts | 223° |
| 2026-04-26 19:59 | -0.02029 | 38.37112 | 38084 ft | 490 kts | 223° |
| 2026-04-26 19:59 | -0.06964 | 38.32336 | 38083 ft | 491 kts | 223° |
| 2026-04-26 20:00 | -0.11865 | 38.27593 | 38083 ft | 491 kts | 223° |
| 2026-04-26 20:00 | -0.16774 | 38.22843 | 38083 ft | 491 kts | 223° |
| 2026-04-26 20:01 | -0.21679 | 38.18096 | 38082 ft | 491 kts | 223° |
| 2026-04-26 20:01 | -0.26580 | 38.13353 | 38082 ft | 491 kts | 223° |
| 2026-04-26 20:02 | -0.31476 | 38.08615 | 38082 ft | 490 kts | 223° |
| 2026-04-26 20:02 | -0.34754 | 38.05442 | 38082 ft | 490 kts | 223° |
| 2026-04-26 20:03 | -0.41246 | 37.99160 | 37768 ft | 481 kts | 223° |
| 2026-04-26 20:03 | -0.43643 | 37.96840 | 37200 ft | 480 kts | 223° |
| 2026-04-26 20:03 | -0.46040 | 37.94520 | 36573 ft | 480 kts | 223° |
| 2026-04-26 20:04 | -0.48438 | 37.92199 | 35994 ft | 480 kts | 223° |
| 2026-04-26 20:04 | -0.50837 | 37.89878 | 35489 ft | 478 kts | 223° |
| 2026-04-26 20:04 | -0.53216 | 37.87575 | 35035 ft | 476 kts | 223° |
| 2026-04-26 20:04 | -0.55586 | 37.85281 | 34574 ft | 473 kts | 223° |
| 2026-04-26 20:05 | -0.57943 | 37.83000 | 34127 ft | 471 kts | 224° |
| 2026-04-26 20:05 | -0.60293 | 37.80725 | 33698 ft | 468 kts | 224° |
| 2026-04-26 20:05 | -0.62623 | 37.78471 | 33295 ft | 464 kts | 224° |
| 2026-04-26 20:05 | -0.64934 | 37.76234 | 32885 ft | 461 kts | 224° |
| 2026-04-26 20:06 | -0.67224 | 37.74017 | 32483 ft | 457 kts | 224° |
| 2026-04-26 20:06 | -0.69499 | 37.71815 | 32103 ft | 453 kts | 224° |
| 2026-04-26 20:06 | -0.71757 | 37.69629 | 31677 ft | 450 kts | 224° |
| 2026-04-26 20:06 | -0.73998 | 37.67460 | 31277 ft | 447 kts | 224° |
| 2026-04-26 20:07 | -0.76223 | 37.65307 | 30880 ft | 444 kts | 224° |
| 2026-04-26 20:07 | -0.78431 | 37.63169 | 30485 ft | 440 kts | 224° |
| 2026-04-26 20:07 | -0.80621 | 37.61049 | 30094 ft | 437 kts | 224° |
| 2026-04-26 20:07 | -0.82795 | 37.58944 | 29675 ft | 434 kts | 224° |
| 2026-04-26 20:08 | -0.84959 | 37.56850 | 29226 ft | 431 kts | 224° |
| 2026-04-26 20:08 | -0.87107 | 37.54770 | 28782 ft | 429 kts | 224° |
| 2026-04-26 20:08 | -0.89242 | 37.52703 | 28373 ft | 425 kts | 225° |
| 2026-04-26 20:08 | -0.91359 | 37.50654 | 27926 ft | 423 kts | 225° |
| 2026-04-26 20:09 | -0.92754 | 37.49303 | 27633 ft | 421 kts | 224° |
| 2026-04-26 20:09 | -0.94852 | 37.47272 | 27212 ft | 418 kts | 224° |
| 2026-04-26 20:09 | -0.96962 | 37.45229 | 26784 ft | 415 kts | 224° |
| 2026-04-26 20:09 | -0.98998 | 37.43258 | 26382 ft | 412 kts | 224° |
| 2026-04-26 20:10 | -1.01080 | 37.41242 | 25946 ft | 410 kts | 224° |
| 2026-04-26 20:10 | -1.03119 | 37.39268 | 25526 ft | 407 kts | 224° |
| 2026-04-26 20:10 | -1.05112 | 37.37339 | 25360 ft | 400 kts | 224° |
| 2026-04-26 20:10 | -1.07103 | 37.35411 | 25299 ft | 399 kts | 225° |
| 2026-04-26 20:11 | -1.09104 | 37.33474 | 25240 ft | 401 kts | 225° |
| 2026-04-26 20:11 | -1.11106 | 37.31535 | 25245 ft | 401 kts | 225° |
| 2026-04-26 20:11 | -1.13111 | 37.29594 | 25246 ft | 401 kts | 225° |
| 2026-04-26 20:12 | -1.17138 | 37.25693 | 25260 ft | 405 kts | 224° |
| 2026-04-26 20:12 | -1.19167 | 37.23728 | 25261 ft | 405 kts | 224° |
| 2026-04-26 20:12 | -1.21195 | 37.21763 | 25261 ft | 406 kts | 224° |
| 2026-04-26 20:12 | -1.23222 | 37.19801 | 25261 ft | 406 kts | 224° |
| 2026-04-26 20:13 | -1.25063 | 37.18018 | 25261 ft | 406 kts | 224° |
| 2026-04-26 20:13 | -1.27079 | 37.16042 | 25258 ft | 406 kts | 226° |
| 2026-04-26 20:13 | -1.28938 | 37.13917 | 25262 ft | 406 kts | 231° |
| 2026-04-26 20:13 | -1.30653 | 37.11675 | 25261 ft | 406 kts | 234° |
| 2026-04-26 20:14 | -1.32296 | 37.09381 | 25261 ft | 406 kts | 235° |
| 2026-04-26 20:14 | -1.33932 | 37.07078 | 25261 ft | 406 kts | 235° |
| 2026-04-26 20:14 | -1.35581 | 37.04788 | 25261 ft | 406 kts | 234° |
| 2026-04-26 20:14 | -1.37237 | 37.02509 | 25166 ft | 405 kts | 234° |
| 2026-04-26 20:15 | -1.38890 | 37.00245 | 24820 ft | 403 kts | 234° |
| 2026-04-26 20:15 | -1.40570 | 36.97945 | 24406 ft | 401 kts | 234° |
| 2026-04-26 20:15 | -1.42174 | 36.95751 | 23993 ft | 398 kts | 234° |
| 2026-04-26 20:15 | -1.43804 | 36.93522 | 23582 ft | 396 kts | 234° |
| 2026-04-26 20:16 | -1.45425 | 36.91306 | 23174 ft | 394 kts | 234° |
| 2026-04-26 20:16 | -1.47039 | 36.89102 | 22762 ft | 392 kts | 234° |
| 2026-04-26 20:16 | -1.48662 | 36.86904 | 22274 ft | 394 kts | 234° |
| 2026-04-26 20:16 | -1.50303 | 36.84684 | 21608 ft | 402 kts | 234° |
| 2026-04-26 20:17 | -1.51969 | 36.82426 | 20900 ft | 406 kts | 234° |
| 2026-04-26 20:17 | -1.53651 | 36.80142 | 20137 ft | 404 kts | 234° |
| 2026-04-26 20:17 | -1.55275 | 36.77930 | 19387 ft | 385 kts | 234° |
| 2026-04-26 20:17 | -1.56311 | 36.76514 | 18890 ft | 378 kts | 234° |
| 2026-04-26 20:18 | -1.58360 | 36.73706 | 17804 ft | 372 kts | 234° |
| 2026-04-26 20:18 | -1.59875 | 36.71620 | 16929 ft | 369 kts | 234° |
| 2026-04-26 20:18 | -1.61366 | 36.69562 | 16055 ft | 363 kts | 234° |
| 2026-04-26 20:18 | -1.62680 | 36.67441 | 15165 ft | 358 kts | 244° |
| 2026-04-26 20:19 | -1.63346 | 36.65076 | 14284 ft | 351 kts | 263° |
| 2026-04-26 20:19 | -1.63215 | 36.62682 | 13408 ft | 344 kts | 283° |
| 2026-04-26 20:19 | -1.62283 | 36.60518 | 12529 ft | 336 kts | 304° |
| 2026-04-26 20:19 | -1.60665 | 36.58885 | 11653 ft | 329 kts | 326° |
| 2026-04-26 20:20 | -1.58590 | 36.58013 | 10914 ft | 324 kts | 349° |
| 2026-04-26 20:20 | -1.56413 | 36.58053 | 10632 ft | 303 kts | 13° |
| 2026-04-26 20:20 | -1.54543 | 36.58801 | 10542 ft | 282 kts | 27° |
| 2026-04-26 20:20 | -1.52828 | 36.59720 | 10418 ft | 278 kts | 30° |
| 2026-04-26 20:21 | -1.51136 | 36.60658 | 10294 ft | 279 kts | 30° |
| 2026-04-26 20:21 | -1.49434 | 36.61599 | 10176 ft | 279 kts | 30° |
| 2026-04-26 20:21 | -1.47944 | 36.62828 | 10078 ft | 279 kts | 50° |
| 2026-04-26 20:21 | -1.47038 | 36.64521 | 10043 ft | 275 kts | 68° |
| 2026-04-26 20:22 | -1.46380 | 36.66304 | 10002 ft | 271 kts | 70° |
| 2026-04-26 20:22 | -1.45765 | 36.68067 | 9999 ft | 266 kts | 71° |
| 2026-04-26 20:22 | -1.45162 | 36.69820 | 10001 ft | 269 kts | 71° |
| 2026-04-26 20:22 | -1.44553 | 36.71592 | 10001 ft | 271 kts | 71° |
| 2026-04-26 20:23 | -1.43946 | 36.73356 | 9998 ft | 265 kts | 71° |
| 2026-04-26 20:23 | -1.43355 | 36.75076 | 9998 ft | 259 kts | 71° |
| 2026-04-26 20:23 | -1.42773 | 36.76768 | 9999 ft | 256 kts | 71° |
| 2026-04-26 20:23 | -1.42197 | 36.78427 | 9998 ft | 246 kts | 70° |
| 2026-04-26 20:24 | -1.41425 | 36.79914 | 9884 ft | 236 kts | 58° |
| 2026-04-26 20:24 | -1.40366 | 36.81213 | 9130 ft | 249 kts | 49° |
| 2026-04-26 20:24 | -1.39350 | 36.82497 | 8846 ft | 222 kts | 52° |
| 2026-04-26 20:24 | -1.38487 | 36.83686 | 8232 ft | 207 kts | 54° |
| 2026-04-26 20:25 | -1.37682 | 36.84830 | 7517 ft | 197 kts | 53° |
| 2026-04-26 20:25 | -1.37144 | 36.85551 | 7113 ft | 186 kts | 52° |
| 2026-04-26 20:25 | -1.36210 | 36.86822 | 6536 ft | 155 kts | 53° |
| 2026-04-26 20:25 | -1.35630 | 36.87671 | 6330 ft | 146 kts | 53° |
| 2026-04-26 20:26 | -1.35038 | 36.88502 | 6112 ft | 148 kts | 53° |
| 2026-04-26 20:26 | -1.34433 | 36.89336 | 5918 ft | 149 kts | 52° |
| 2026-04-26 20:26 | -1.33825 | 36.90172 | 5717 ft | 148 kts | 52° |
| 2026-04-26 20:26 | -1.33222 | 36.91002 | 5520 ft | 148 kts | 53° |
| 2026-04-26 20:27 | -1.32619 | 36.91831 | 5356 ft | 146 kts | 52° |
| 2026-04-26 20:27 | -1.32087 | 36.92568 | 5342 ft | 110 kts | 51° |
| 2026-04-26 20:27 | -1.31723 | 36.93058 | 5342 ft | 65 kts | 54° |
| 2026-04-26 20:27 | -1.31603 | 36.93223 | 5342 ft | 2 kts | 54° |
| 2026-04-26 20:28 | -1.31598 | 36.93230 | 5342 ft | 2 kts | 54° |
| 2026-04-26 20:28 | -1.31580 | 36.93258 | 5342 ft | 13 kts | 61° |
| 2026-04-26 20:28 | -1.31577 | 36.93326 | 5342 ft | 13 kts | 118° |
| 2026-04-26 20:28 | -1.31595 | 36.93347 | 5342 ft | 0 kts | 137° |
| 2026-04-26 20:29 | -1.31595 | 36.93348 | 5342 ft | 0 kts | 137° |
| 2026-04-26 20:29 | -1.31600 | 36.93352 | 5342 ft | 0 kts | 137° |
| 2026-04-26 20:30 | -1.31609 | 36.93360 | 5342 ft | 4 kts | 140° |
| 2026-04-26 20:30 | -1.31653 | 36.93394 | 5342 ft | 9 kts | 144° |
| 2026-04-26 20:30 | -1.31671 | 36.93406 | 5342 ft | 1 kts | 144° |
| 2026-04-26 20:30 | -1.31690 | 36.93420 | 5342 ft | 5 kts | 144° |
| 2026-04-26 20:31 | -1.31730 | 36.93449 | 5342 ft | 5 kts | 144° |
| 2026-04-26 20:31 | -1.31766 | 36.93474 | 5342 ft | 6 kts | 147° |
| 2026-04-26 20:31 | -1.31812 | 36.93475 | 5342 ft | 8 kts | 207° |
| 2026-04-26 20:31 | -1.31860 | 36.93430 | 5342 ft | 8 kts | 233° |
| 2026-04-26 20:32 | -1.31898 | 36.93377 | 5342 ft | 11 kts | 234° |
| 2026-04-26 20:32 | -1.31951 | 36.93305 | 5342 ft | 15 kts | 234° |
| 2026-04-26 20:32 | -1.32015 | 36.93217 | 5342 ft | 14 kts | 234° |
| 2026-04-26 20:32 | -1.32054 | 36.93163 | 5342 ft | 11 kts | 234° |
| 2026-04-26 20:33 | -1.32105 | 36.93094 | 5342 ft | 14 kts | 233° |
| 2026-04-26 20:33 | -1.32169 | 36.93007 | 5342 ft | 17 kts | 234° |
| 2026-04-26 20:33 | -1.32228 | 36.92925 | 5342 ft | 14 kts | 234° |
| 2026-04-26 20:33 | -1.32275 | 36.92861 | 5342 ft | 11 kts | 234° |
| 2026-04-26 20:34 | -1.32328 | 36.92788 | 5342 ft | 9 kts | 234° |
| 2026-04-26 20:34 | -1.32369 | 36.92732 | 5342 ft | 12 kts | 234° |
| 2026-04-26 20:34 | -1.32423 | 36.92658 | 5342 ft | 10 kts | 234° |
| 2026-04-26 20:34 | -1.32468 | 36.92595 | 5342 ft | 13 kts | 234° |
| 2026-04-26 20:35 | -1.32527 | 36.92512 | 5342 ft | 16 kts | 234° |
| 2026-04-26 20:35 | -1.32579 | 36.92439 | 5342 ft | 11 kts | 234° |
| 2026-04-26 20:35 | -1.32624 | 36.92376 | 5342 ft | 7 kts | 232° |
| 2026-04-26 20:35 | -1.32670 | 36.92350 | 5342 ft | 9 kts | 174° |
| 2026-04-26 20:36 | -1.32712 | 36.92371 | 5342 ft | 8 kts | 145° |
| 2026-04-26 20:36 | -1.32761 | 36.92411 | 5342 ft | 7 kts | 125° |
| 2026-04-26 20:36 | -1.32767 | 36.92458 | 5342 ft | 3 kts | 84° |
| 2026-04-26 20:36 | -1.32765 | 36.92488 | 5342 ft | 3 kts | 86° |
| 2026-04-26 20:37 | -1.32764 | 36.92522 | 5342 ft | 7 kts | 90° |
| 2026-04-26 20:37 | -1.32764 | 36.92551 | 5342 ft | 4 kts | 90° |
| 2026-04-26 20:37 | -1.32764 | 36.92561 | 5342 ft | 1 kts | 95° |
| 2026-04-26 20:37 | -1.32766 | 36.92566 | 5342 ft | 1 kts | 107° |
| 2026-04-26 20:38 | -1.32769 | 36.92571 | 5342 ft | 1 kts | 119° |
| 2026-04-26 20:38 | -1.32772 | 36.92576 | 5342 ft | 1 kts | 132° |
| 2026-04-26 20:38 | -1.32777 | 36.92579 | 5342 ft | 1 kts | 145° |
| 2026-04-26 20:38 | -1.32789 | 36.92583 | 5342 ft | 3 kts | 170° |
| 2026-04-26 20:39 | -1.32805 | 36.92580 | 5342 ft | 2 kts | 205° |
| 2026-04-26 20:39 | -1.32813 | 36.92573 | 5342 ft | 0 kts | 227° |
| 2026-04-26 20:39 | -1.32828 | 36.92559 | 5342 ft | 2 kts | 219° |
| 2026-04-26 20:39 | -1.32835 | 36.92554 | 5342 ft | 0 kts | 212° |
| 2026-04-26 20:40 | -1.32839 | 36.92552 | 5342 ft | 1 kts | 203° |
| 2026-04-26 20:40 | -1.32844 | 36.92551 | 5342 ft | 1 kts | 193° |
| 2026-04-26 20:40 | -1.32851 | 36.92549 | 5342 ft | 0 kts | 191° |
| 2026-04-26 20:41 | -1.32852 | 36.92549 | 5342 ft | 0 kts | 191° |